Accueil
METAR-TAF:

METAR-TAF

Aéroports :

Bolzano, Italie

latitude: 46-28N, longitude: 011-20E, altitude: 262 m

Observation

Le bulletin a été fait il y a 26 minutes, à 18:50 UTC
Vent 3 kt de nord-ouest, variant entre sud-ouest et nord/nord-ouest
Température 16°C
Humidité 77%
Pression 1003 hPa
Visibilité 10 km ou plus
Quelques nuages à une hauteur de 5000 ft

METAR: LIPB 261850Z 31003KT 220V340 9999 FEW050 16/12 Q1003

Heure: 21:16 (19:16 UTC)

Prévision

Le bulletin a été fait il y a 2 heures et 16 minutes, à 17:00 UTC
Prévision valable du 26 à 18 UTC au 27 à 18 UTC
Vent 5 kt de direction variable
Visibilité 10 km ou plus
Nuages épars à une hauteur de 5000 ft
Temporairement
du 26 à 18 UTC au 27 à 10 UTC
Visibilité: 4000 m
averses de pluie

TAF: LIPB 261700Z 2618/2718 VRB05KT 9999 SCT050 TEMPO 2618/2710 4000 SHRA

Observations et prévisions météorologiques de plus de 4000 aéroports (messages METAR et TAF).

Les stations disponibles sont représentées par des disques jaunes et rouges sur la carte.

Passer la souris dessus pour voir le nom de la station.

Cliquer dessus pour voir les observations et prévisions météorologiques.

Pour changer de carte: cliquez sur les boutons verts avec une croix noire pour zoomer, sur le bouton vert avec un tiret pour effectuer un zoom arrière, ou sur les flèches vertes pour les cartes adjacentes.


METAR-TAF: